Time;durP1;ratioP1;P1;durP2;ratioP2;P2;SDS_P1;SDS_P2;PMS_P1;PMS_P2;Temp;Humidity;BMP_temperature;BMP_pressure;BME280_temperature;BME280_humidity;BME280_pressure;Samples;Min_cycle;Max_cycle;Signal;HPM_P1;HPM_P2
2023/03/12 00:02:13;;;;;;;11.40;4.40;;;;;;;-0.67;100.00;99699.52;215246;1289;138662;-85
2023/03/12 00:07:14;;;;;;;13.30;4.60;;;;;;;-0.69;100.00;99698.69;214683;1288;139013;-87
2023/03/12 00:12:14;;;;;;;11.00;4.00;;;;;;;-0.69;100.00;99695.66;215229;1289;138681;-86
2023/03/12 00:17:14;;;;;;;13.10;4.20;;;;;;;-0.69;100.00;99704.38;214475;1290;139078;-86
2023/03/12 00:22:15;;;;;;;13.20;4.50;;;;;;;-0.70;100.00;99698.94;215239;1289;96693;-86
2023/03/12 00:27:16;;;;;;;11.90;4.40;;;;;;;-0.71;100.00;99701.30;214629;1288;138480;-86
2023/03/12 00:32:17;;;;;;;10.90;4.30;;;;;;;-0.73;100.00;99702.52;215069;1289;138603;-86
2023/03/12 00:37:17;;;;;;;11.90;4.40;;;;;;;-0.74;100.00;99703.17;214746;1288;139377;-86
2023/03/12 00:42:18;;;;;;;11.40;4.40;;;;;;;-0.75;100.00;99702.99;215051;1288;138795;-89
2023/03/12 00:47:19;;;;;;;9.60;3.90;;;;;;;-0.75;100.00;99711.07;214592;1288;138968;-87
2023/03/12 00:52:19;;;;;;;11.20;4.30;;;;;;;-0.77;100.00;99716.02;215084;1288;97568;-87
2023/03/12 00:57:20;;;;;;;12.90;4.50;;;;;;;-0.78;100.00;99715.89;214602;1289;139263;-87
2023/03/12 01:02:20;;;;;;;13.90;4.20;;;;;;;-0.77;100.00;99716.75;215133;1292;139217;-88
2023/03/12 01:07:21;;;;;;;11.60;4.00;;;;;;;-0.76;100.00;99721.46;214631;1289;140417;-87
2023/03/12 01:12:22;;;;;;;12.50;5.40;;;;;;;-0.73;100.00;99720.66;215020;1288;140413;-86
2023/03/12 01:17:22;;;;;;;9.80;4.40;;;;;;;-0.70;100.00;99720.65;214420;1293;139264;-88
2023/03/12 01:22:22;;;;;;;10.60;4.30;;;;;;;-0.66;100.00;99720.11;215002;1289;96546;-89
2023/03/12 01:27:23;;;;;;;9.80;3.80;;;;;;;-0.61;100.00;99724.05;214528;1292;138888;-87
2023/03/12 01:32:24;;;;;;;7.60;2.90;;;;;;;-0.53;100.00;99723.70;215067;1288;138522;-88
2023/03/12 01:37:25;;;;;;;7.70;3.80;;;;;;;-0.46;100.00;99721.15;214433;1289;139171;-87
2023/03/12 01:42:25;;;;;;;10.50;3.10;;;;;;;-0.41;100.00;99721.46;215133;1288;138557;-86
2023/03/12 01:47:27;;;;;;;12.30;3.30;;;;;;;-0.35;100.00;99714.95;214551;1288;139068;-89
2023/03/12 01:52:32;;;;;;;7.90;3.00;;;;;;;-0.31;100.00;99708.34;215287;1293;97853;-87
2023/03/12 01:57:47;;;;;;;8.00;2.80;;;;;;;-0.28;100.00;99707.94;214634;1292;138694;-87
2023/03/12 02:02:49;;;;;;;9.80;3.10;;;;;;;-0.25;100.00;99710.01;214999;1289;139217;-87
2023/03/12 02:07:50;;;;;;;9.30;3.10;;;;;;;-0.23;100.00;99715.17;214700;1289;138903;-87
2023/03/12 02:12:51;;;;;;;9.70;2.90;;;;;;;-0.22;100.00;99716.84;215044;1289;139388;-86
2023/03/12 02:17:53;;;;;;;9.60;3.00;;;;;;;-0.22;100.00;99715.71;214461;1289;138988;-88
2023/03/12 02:23:03;;;;;;;9.30;3.00;;;;;;;-0.21;100.00;99716.98;215140;1288;107500;-87
2023/03/12 02:28:07;;;;;;;8.80;3.20;;;;;;;-0.20;100.00;99719.96;214447;1291;138818;-88
2023/03/12 02:33:08;;;;;;;8.00;3.10;;;;;;;-0.18;100.00;99725.11;215224;1288;138527;-88
2023/03/12 02:38:27;;;;;;;9.50;3.00;;;;;;;-0.16;100.00;99732.08;214631;1289;138789;-90
2023/03/12 02:43:27;;;;;;;7.30;2.80;;;;;;;-0.13;100.00;99742.35;215129;1288;139084;-88
2023/03/12 02:48:28;;;;;;;10.40;3.10;;;;;;;-0.09;100.00;99738.96;214625;1292;138882;-88
2023/03/12 02:53:29;;;;;;;8.80;2.60;;;;;;;-0.05;100.00;99744.53;215155;1288;139339;-90
2023/03/12 02:58:29;;;;;;;7.90;2.70;;;;;;;-0.01;100.00;99741.23;214592;1289;138763;-89
2023/03/12 03:03:29;;;;;;;6.30;2.30;;;;;;;0.03;100.00;99745.09;215076;1292;138195;-88
2023/03/12 03:08:30;;;;;;;10.10;4.00;;;;;;;0.06;100.00;99742.98;214498;1292;138092;-88
2023/03/12 03:13:32;;;;;;;6.40;2.30;;;;;;;0.09;100.00;99742.11;214860;1289;138839;-88
2023/03/12 03:18:33;;;;;;;13.70;3.40;;;;;;;0.13;100.00;99746.66;214246;1289;138980;-87
2023/03/12 03:23:34;;;;;;;7.60;2.80;;;;;;;0.15;100.00;99753.73;215113;1289;139853;-87
2023/03/12 03:28:35;;;;;;;11.20;3.20;;;;;;;0.15;100.00;99750.48;214694;1289;138712;-89
2023/03/12 03:33:36;;;;;;;6.80;3.10;;;;;;;0.13;100.00;99761.98;214911;1291;138578;-85
2023/03/12 03:38:37;;;;;;;10.60;3.60;;;;;;;0.09;100.00;99768.94;214503;1290;138565;-88
2023/03/12 03:43:37;;;;;;;6.90;2.60;;;;;;;0.06;100.00;99784.48;215045;1291;138281;-86
2023/03/12 03:48:38;;;;;;;6.90;2.80;;;;;;;0.02;100.00;99790.98;214632;1291;138788;-86
2023/03/12 03:53:39;;;;;;;8.90;2.90;;;;;;;0.00;100.00;99798.86;214979;1293;138169;-87
2023/03/12 03:58:40;;;;;;;11.20;3.20;;;;;;;-0.01;100.00;99807.83;214584;1292;138823;-89
2023/03/12 04:03:41;;;;;;;8.20;2.50;;;;;;;-0.02;100.00;99813.20;215166;1291;138535;-89
2023/03/12 04:08:41;;;;;;;7.30;2.70;;;;;;;-0.03;100.00;99811.23;214481;1289;138871;-89
2023/03/12 04:13:43;;;;;;;7.40;2.70;;;;;;;-0.01;100.00;99814.76;214824;1289;295168;-88
2023/03/12 04:18:43;;;;;;;6.20;2.60;;;;;;;-0.00;100.00;99828.52;214484;1289;138989;-89
2023/03/12 04:23:44;;;;;;;7.70;2.30;;;;;;;0.01;100.00;99833.66;215055;1289;138486;-88
2023/03/12 04:28:44;;;;;;;8.30;2.70;;;;;;;0.02;100.00;99839.02;214708;1293;138766;-88
2023/03/12 04:33:45;;;;;;;8.20;2.40;;;;;;;0.03;100.00;99841.64;215201;1289;138031;-88
2023/03/12 04:38:45;;;;;;;7.50;2.60;;;;;;;0.04;100.00;99842.09;214629;1292;139718;-87
2023/03/12 04:43:46;;;;;;;11.20;2.70;;;;;;;0.05;100.00;99845.58;214932;1288;138452;-87
2023/03/12 04:48:46;;;;;;;10.60;2.80;;;;;;;0.03;100.00;99853.92;214425;1289;138474;-89
2023/03/12 04:53:47;;;;;;;7.50;2.60;;;;;;;-0.00;100.00;99854.70;215004;1288;138423;-88
2023/03/12 04:58:48;;;;;;;5.90;2.70;;;;;;;-0.04;100.00;99862.34;214660;1289;138673;-87
2023/03/12 05:03:48;;;;;;;8.00;2.70;;;;;;;-0.09;100.00;99864.45;215233;1288;138126;-86
2023/03/12 05:08:49;;;;;;;7.10;2.40;;;;;;;-0.15;100.00;99870.02;214547;1294;138662;-88
2023/03/12 05:13:49;;;;;;;7.70;2.80;;;;;;;-0.22;100.00;99877.82;215202;1289;138428;-87
2023/03/12 05:18:49;;;;;;;7.20;2.50;;;;;;;-0.27;100.00;99884.56;214741;1288;138981;-88
2023/03/12 05:23:50;;;;;;;10.80;2.70;;;;;;;-0.32;100.00;99893.66;215088;1288;139050;-88
2023/03/12 05:28:51;;;;;;;6.80;3.00;;;;;;;-0.38;100.00;99901.06;214729;1289;139005;-88
2023/03/12 05:33:51;;;;;;;9.50;2.90;;;;;;;-0.42;100.00;99905.59;214967;1289;138401;-87
2023/03/12 05:38:52;;;;;;;16.40;5.60;;;;;;;-0.46;100.00;99912.96;214393;1288;139366;-87
2023/03/12 05:43:55;;;;;;;7.70;3.00;;;;;;;-0.48;100.00;99912.54;214957;1289;139161;-88
2023/03/12 05:48:55;;;;;;;9.10;3.20;;;;;;;-0.50;100.00;99923.95;214557;1288;139216;-87
2023/03/12 05:53:55;;;;;;;8.20;3.10;;;;;;;-0.50;100.00;99934.86;215001;1293;139138;-88
2023/03/12 05:58:56;;;;;;;6.90;2.80;;;;;;;-0.49;100.00;99947.27;214499;1289;138872;-87
2023/03/12 06:03:57;;;;;;;9.10;3.80;;;;;;;-0.48;100.00;99956.11;214881;1288;138623;-88
2023/03/12 06:08:57;;;;;;;9.30;3.50;;;;;;;-0.47;100.00;99959.56;214600;1288;139318;-88
2023/03/12 06:13:57;;;;;;;8.90;3.10;;;;;;;-0.45;100.00;99964.98;215042;1289;139029;-87
2023/03/12 06:19:00;;;;;;;10.30;3.30;;;;;;;-0.44;100.00;99971.27;214540;1288;138991;-88
2023/03/12 06:24:01;;;;;;;8.50;3.50;;;;;;;-0.41;100.00;99977.13;214815;1290;139518;-87
2023/03/12 06:29:02;;;;;;;7.10;3.50;;;;;;;-0.37;100.00;99983.71;214433;1291;139769;-88
2023/03/12 06:34:02;;;;;;;6.80;2.90;;;;;;;-0.33;100.00;99990.24;215040;1290;138920;-87
2023/03/12 06:39:07;;;;;;;10.10;3.30;;;;;;;-0.30;100.00;99995.22;214500;1292;138950;-87
2023/03/12 06:44:08;;;;;;;9.60;3.50;;;;;;;-0.25;100.00;99997.83;214964;1289;138719;-88
2023/03/12 06:49:09;;;;;;;13.30;3.80;;;;;;;-0.20;100.00;100002.67;214429;1289;139055;-88
2023/03/12 06:54:10;;;;;;;12.20;3.60;;;;;;;-0.14;100.00;100006.27;214827;1289;139440;-89
2023/03/12 06:59:10;;;;;;;10.20;3.60;;;;;;;-0.08;100.00;100014.23;214573;1289;139612;-88
2023/03/12 07:04:11;;;;;;;9.80;3.30;;;;;;;-0.01;100.00;100016.31;214940;1289;96571;-89
2023/03/12 07:09:11;;;;;;;8.70;3.60;;;;;;;0.05;100.00;100022.70;214473;1289;138874;-89
2023/03/12 07:14:11;;;;;;;8.70;4.00;;;;;;;0.13;100.00;100028.42;215129;1292;141763;-90
2023/03/12 07:19:12;;;;;;;8.30;3.00;;;;;;;0.20;100.00;100029.21;214625;1291;138465;-88
2023/03/12 07:24:12;;;;;;;10.30;3.80;;;;;;;0.28;100.00;100028.34;215133;1294;138556;-90
2023/03/12 07:29:13;;;;;;;10.40;3.60;;;;;;;0.38;100.00;100030.64;214786;1289;138567;-90
2023/03/12 07:34:14;;;;;;;7.40;3.30;;;;;;;0.48;100.00;100035.87;215450;1288;95290;-91
2023/03/12 07:39:14;;;;;;;10.20;3.20;;;;;;;0.57;100.00;100035.16;214662;1292;138752;-90
2023/03/12 07:44:14;;;;;;;12.30;3.70;;;;;;;0.68;100.00;100042.34;215158;1289;138451;-91
2023/03/12 07:49:15;;;;;;;5.70;2.30;;;;;;;0.77;100.00;100051.41;214583;1288;139643;-89
2023/03/12 07:54:15;;;;;;;8.50;2.40;;;;;;;0.85;100.00;100051.06;215121;1291;138953;-90
2023/03/12 07:59:18;;;;;;;6.00;2.10;;;;;;;0.97;100.00;100061.41;214623;1292;138630;-88
2023/03/12 08:04:18;;;;;;;7.50;2.30;;;;;;;1.07;100.00;100062.23;215375;1289;96519;-88
2023/03/12 08:09:19;;;;;;;5.90;1.90;;;;;;;1.17;100.00;100063.80;214778;1289;138783;-88
2023/03/12 08:14:19;;;;;;;7.00;2.10;;;;;;;1.28;100.00;100068.15;215454;1292;138427;-89
2023/03/12 08:19:20;;;;;;;9.70;1.80;;;;;;;1.42;100.00;100073.70;214709;1292;138381;-90
2023/03/12 08:24:21;;;;;;;8.30;2.10;;;;;;;1.56;100.00;100075.21;215280;1290;138517;-89
2023/03/12 08:29:21;;;;;;;9.80;2.20;;;;;;;1.71;100.00;100080.17;214533;1289;138552;-89
2023/03/12 08:34:21;;;;;;;10.60;2.00;;;;;;;1.88;99.91;100078.74;215260;1289;96283;-88
2023/03/12 08:39:22;;;;;;;9.90;2.50;;;;;;;2.09;98.06;100079.64;214632;1289;139294;-87
2023/03/12 08:44:23;;;;;;;6.60;1.60;;;;;;;2.31;97.19;100084.02;214993;1289;138480;-88
2023/03/12 08:49:24;;;;;;;7.70;1.70;;;;;;;2.52;98.88;100085.18;214327;1292;138877;-87
2023/03/12 08:54:24;;;;;;;10.20;2.20;;;;;;;2.71;97.00;100093.81;214913;1289;138363;-88
2023/03/12 08:59:25;;;;;;;8.20;1.80;;;;;;;2.91;96.78;100096.95;214640;1289;138488;-88
2023/03/12 09:04:25;;;;;;;11.00;2.40;;;;;;;3.25;94.56;100100.50;215265;1289;97031;-88
2023/03/12 09:09:26;;;;;;;14.00;3.00;;;;;;;3.63;92.68;100109.41;215471;1291;139477;-86
2023/03/12 09:14:26;;;;;;;7.00;1.50;;;;;;;4.07;94.04;100119.73;215537;1289;138845;-88
2023/03/12 09:19:27;;;;;;;9.00;2.60;;;;;;;4.45;94.30;100117.34;215071;1288;139031;-88
2023/03/12 09:24:28;;;;;;;4.60;1.90;;;;;;;4.86;92.66;100122.52;215987;1294;138679;-88
2023/03/12 09:29:29;;;;;;;28.50;3.70;;;;;;;5.21;92.43;100125.69;214679;1292;140113;-87
2023/03/12 09:34:30;;;;;;;6.90;2.10;;;;;;;5.28;88.47;100126.19;215248;1289;96539;-88
2023/03/12 09:39:31;;;;;;;7.00;2.00;;;;;;;5.39;89.60;100130.48;214709;1289;138347;-88
2023/03/12 09:44:38;;;;;;;7.60;2.20;;;;;;;5.54;86.85;100135.41;215210;1294;138985;-88
2023/03/12 09:49:48;;;;;;;10.60;2.00;;;;;;;5.66;86.09;100136.09;214430;1291;138959;-87
2023/03/12 09:55:01;;;;;;;9.20;2.00;;;;;;;5.75;85.35;100132.43;215599;1290;138582;-88
2023/03/12 10:00:01;;;;;;;7.40;2.70;;;;;;;6.03;87.40;100127.54;214714;1294;138593;-87
2023/03/12 10:05:11;;;;;;;10.70;2.40;;;;;;;6.57;87.70;100129.34;215396;1294;96590;-88
2023/03/12 10:10:35;;;;;;;8.50;2.80;;;;;;;7.12;85.29;100126.06;214775;1292;138192;-89
2023/03/12 10:16:00;;;;;;;6.40;2.30;;;;;;;7.26;80.39;100123.61;215206;1295;138492;-89
2023/03/12 10:21:08;;;;;;;8.90;1.90;;;;;;;7.52;81.28;100123.40;214831;1289;138366;-88
2023/03/12 10:26:24;;;;;;;9.50;2.80;;;;;;;7.93;82.20;100138.28;214555;1292;138331;-87
2023/03/12 10:31:29;;;;;;;10.10;2.00;;;;;;;8.38;77.72;100138.55;215086;1292;139150;-89
2023/03/12 10:36:35;;;;;;;11.20;2.20;;;;;;;8.25;74.83;100143.36;214869;1291;138772;-87
2023/03/12 10:41:36;;;;;;;4.80;1.80;;;;;;;8.05;74.87;100147.48;215094;1294;137979;-88
2023/03/12 10:46:36;;;;;;;7.10;2.20;;;;;;;7.99;75.36;100143.72;214761;1289;138221;-87
2023/03/12 10:51:56;;;;;;;10.00;1.60;;;;;;;8.03;73.74;100142.29;215101;1292;137381;-88
2023/03/12 10:56:57;;;;;;;10.10;2.60;;;;;;;7.85;73.17;100146.27;214582;1292;138423;-88
2023/03/12 11:01:58;;;;;;;6.50;1.80;;;;;;;7.88;73.23;100148.52;215205;1288;137598;-89
2023/03/12 11:07:16;;;;;;;4.60;1.60;;;;;;;7.59;72.98;100150.27;214674;1293;138614;-88
2023/03/12 11:12:27;;;;;;;6.30;1.70;;;;;;;7.59;74.00;100145.20;215184;1296;137969;-88
2023/03/12 11:17:28;;;;;;;6.20;1.70;;;;;;;7.72;75.00;100143.70;214475;1288;138454;-88
2023/03/12 11:22:32;;;;;;;7.00;2.50;;;;;;;7.76;72.72;100142.44;215399;1292;95270;-88
2023/03/12 11:27:39;;;;;;;4.80;1.60;;;;;;;7.69;74.55;100140.75;214819;1289;138271;-87
2023/03/12 11:32:44;;;;;;;5.30;1.70;;;;;;;7.65;70.73;100134.98;215274;1292;138137;-87
2023/03/12 11:37:52;;;;;;;6.30;2.10;;;;;;;7.48;71.47;100131.83;214678;1289;138376;-87
2023/03/12 11:43:07;;;;;;;5.70;1.70;;;;;;;7.50;70.38;100127.19;215310;1292;137830;-91
2023/03/12 11:48:23;;;;;;;5.60;1.40;;;;;;;7.38;70.35;100126.27;214787;1292;139257;-90
2023/03/12 11:53:48;;;;;;;5.60;2.00;;;;;;;7.28;70.95;100122.63;214927;1289;138519;-91
2023/03/12 11:59:04;;;;;;;5.30;2.40;;;;;;;7.23;69.44;100118.86;214910;1288;138539;-88
2023/03/12 12:04:23;;;;;;;6.20;1.50;;;;;;;7.15;68.59;100122.98;215303;1289;137440;-89
2023/03/12 12:10:08;;;;;;;5.80;1.40;;;;;;;7.06;68.85;100122.81;214691;1289;139164;-89
2023/03/12 12:15:46;;;;;;;7.70;2.60;;;;;;;7.00;68.50;100123.23;215065;1289;137342;-90
2023/03/12 12:21:19;;;;;;;8.00;1.70;;;;;;;6.85;68.81;100114.73;214662;1294;138238;-89
2023/03/12 12:26:53;;;;;;;6.70;1.70;;;;;;;6.80;69.62;100114.00;214672;1290;138163;-90
2023/03/12 12:31:56;;;;;;;9.40;2.60;;;;;;;6.88;69.24;100115.57;215387;1289;138209;-89
2023/03/12 12:37:32;;;;;;;8.50;2.00;;;;;;;6.77;68.92;100109.70;214741;1289;138360;-90
2023/03/12 12:42:38;;;;;;;6.60;1.80;;;;;;;6.74;70.42;100110.50;215028;1291;137686;-89
2023/03/12 12:47:45;;;;;;;7.10;1.90;;;;;;;6.76;70.00;100109.38;214557;1288;138126;-89
2023/03/12 12:52:55;;;;;;;9.60;1.90;;;;;;;6.82;69.91;100109.74;215158;1289;105907;-88
2023/03/12 12:58:05;;;;;;;8.50;3.10;;;;;;;6.84;69.47;100104.75;214374;1292;138981;-88
2023/03/12 13:03:12;;;;;;;10.90;2.50;;;;;;;6.74;68.73;100094.56;215140;1288;137330;-89
2023/03/12 13:08:33;;;;;;;8.20;2.00;;;;;;;6.66;68.90;100088.14;214804;1289;138300;-88
2023/03/12 13:13:33;;;;;;;10.90;2.70;;;;;;;6.61;68.37;100089.84;216085;1288;138846;-89
2023/03/12 13:18:34;;;;;;;7.70;2.10;;;;;;;6.59;69.06;100091.75;215534;1288;138528;-89
2023/03/12 13:23:47;;;;;;;9.50;1.80;;;;;;;6.59;68.65;100100.95;215929;1294;138489;-88
2023/03/12 13:28:51;;;;;;;9.30;2.70;;;;;;;6.60;67.94;100112.29;215621;1291;138334;-87
2023/03/12 13:34:04;;;;;;;7.50;1.70;;;;;;;6.59;67.55;100108.69;215827;1288;137392;-88
2023/03/12 13:39:05;;;;;;;7.30;1.70;;;;;;;6.59;67.60;100095.18;215189;1289;138812;-88
2023/03/12 13:44:27;;;;;;;5.10;1.60;;;;;;;6.61;67.18;100088.02;215880;1289;138019;-90
2023/03/12 13:49:54;;;;;;;8.00;2.60;;;;;;;6.65;65.57;100088.44;215398;1288;138555;-89
2023/03/12 13:55:15;;;;;;;5.90;2.80;;;;;;;6.68;65.85;100092.87;215736;1288;137930;-90
2023/03/12 14:00:35;;;;;;;9.70;2.00;;;;;;;6.70;65.36;100093.77;215791;1289;138969;-88
2023/03/12 14:05:52;;;;;;;5.40;1.80;;;;;;;6.62;64.50;100094.09;215250;1288;139017;-88
2023/03/12 14:10:52;;;;;;;8.30;1.50;;;;;;;6.57;65.14;100091.02;214718;1289;137975;-89
2023/03/12 14:16:19;;;;;;;10.40;2.80;;;;;;;6.63;66.48;100090.05;215369;1288;138193;-88
2023/03/12 14:21:23;;;;;;;7.60;1.80;;;;;;;6.76;65.37;100084.14;215002;1288;138180;-87
2023/03/12 14:26:27;;;;;;;8.70;1.60;;;;;;;6.78;64.48;100080.19;214893;1291;138361;-87
2023/03/12 14:31:29;;;;;;;9.30;2.60;;;;;;;6.74;64.15;100073.25;215502;1290;138012;-88
2023/03/12 14:36:48;;;;;;;7.80;2.20;;;;;;;6.68;64.67;100070.06;214779;1288;137859;-89
2023/03/12 14:42:00;;;;;;;12.90;3.50;;;;;;;6.66;64.70;100073.85;215252;1289;137479;-89
2023/03/12 14:47:06;;;;;;;11.20;3.00;;;;;;;6.57;64.55;100074.76;214909;1291;137832;-90
2023/03/12 14:52:13;;;;;;;11.00;3.50;;;;;;;6.39;63.83;100070.07;215474;1294;138293;-88
2023/03/12 14:57:19;;;;;;;11.70;3.50;;;;;;;6.28;65.28;100063.27;214849;1289;138466;-87
2023/03/12 15:02:21;;;;;;;10.60;2.80;;;;;;;6.22;65.62;100051.17;215291;1291;139056;-88
2023/03/12 15:07:27;;;;;;;11.20;3.00;;;;;;;6.14;65.49;100047.19;215273;1289;138991;-89
2023/03/12 15:12:35;;;;;;;7.10;3.10;;;;;;;6.04;64.71;100037.12;215318;1289;138208;-89
2023/03/12 15:17:36;;;;;;;8.50;2.70;;;;;;;5.90;65.15;100042.78;214899;1289;138213;-87
2023/03/12 15:22:37;;;;;;;9.70;3.30;;;;;;;5.82;64.88;100039.02;215694;1289;97532;-88
2023/03/12 15:27:37;;;;;;;8.40;3.10;;;;;;;5.74;66.43;100039.10;215044;1290;137667;-89
2023/03/12 15:32:38;;;;;;;8.10;2.60;;;;;;;5.72;66.53;100049.52;215475;1289;137439;-88
2023/03/12 15:37:39;;;;;;;12.20;3.60;;;;;;;5.64;66.50;100065.54;215038;1289;138591;-86
2023/03/12 15:42:42;;;;;;;10.30;3.80;;;;;;;5.56;67.21;100060.11;215342;1292;138605;-87
2023/03/12 15:47:44;;;;;;;10.20;3.40;;;;;;;5.50;68.32;100047.63;214643;1291;140307;-89
2023/03/12 15:53:04;;;;;;;10.60;3.00;;;;;;;5.49;68.74;100039.83;215581;1291;97592;-88
2023/03/12 15:58:27;;;;;;;11.30;3.20;;;;;;;5.44;68.74;100031.05;214815;1290;138727;-88
2023/03/12 16:03:27;;;;;;;6.40;2.50;;;;;;;5.35;68.92;100036.34;215621;1289;139432;-89
2023/03/12 16:08:37;;;;;;;9.40;3.40;;;;;;;5.26;69.59;100027.08;214878;1289;139048;-89
2023/03/12 16:13:37;;;;;;;13.60;4.70;;;;;;;5.21;69.67;100018.84;215395;1289;219979;-89
2023/03/12 16:18:39;;;;;;;12.60;4.30;;;;;;;5.17;70.50;100012.17;215355;1288;138528;-89
2023/03/12 16:23:39;;;;;;;23.70;8.70;;;;;;;5.10;70.72;100006.09;215561;1288;138940;-89
2023/03/12 16:28:40;;;;;;;21.70;8.30;;;;;;;5.05;71.38;100004.94;214924;1288;139121;-89
2023/03/12 16:33:42;;;;;;;21.30;7.10;;;;;;;5.02;71.51;100001.11;215533;1289;138228;-89
2023/03/12 16:38:43;;;;;;;13.60;5.30;;;;;;;4.99;71.78;100006.08;215259;1288;138816;-89
2023/03/12 16:43:47;;;;;;;11.50;4.50;;;;;;;4.94;72.30;99997.46;215705;1292;139237;-88
2023/03/12 16:48:51;;;;;;;11.20;5.30;;;;;;;4.85;72.70;99989.52;215235;1290;138179;-88
2023/03/12 16:53:52;;;;;;;19.00;7.10;;;;;;;4.81;73.32;99994.55;215198;1291;137645;-87
2023/03/12 16:58:53;;;;;;;22.00;8.40;;;;;;;4.76;73.72;100003.85;214673;1289;138089;-88
2023/03/12 17:03:53;;;;;;;25.90;7.70;;;;;;;4.67;73.93;100010.14;215263;1288;139169;-87
2023/03/12 17:08:54;;;;;;;25.60;10.30;;;;;;;4.57;74.42;100007.28;214626;1288;138580;-88
2023/03/12 17:13:58;;;;;;;26.10;11.10;;;;;;;4.53;75.23;100009.98;215450;1289;138842;-88
2023/03/12 17:18:58;;;;;;;20.40;8.70;;;;;;;4.47;75.71;100003.42;214790;1288;138865;-88
2023/03/12 17:23:59;;;;;;;22.60;8.10;;;;;;;4.43;76.39;100008.27;214920;1289;138469;-88
2023/03/12 17:28:59;;;;;;;18.40;8.10;;;;;;;4.41;76.94;100003.71;215069;1288;139465;-88
2023/03/12 17:34:02;;;;;;;21.70;9.20;;;;;;;4.39;77.65;99990.73;215336;1288;138335;-88
2023/03/12 17:39:03;;;;;;;24.70;9.40;;;;;;;4.35;77.69;99989.92;214845;1289;139370;-89
2023/03/12 17:44:05;;;;;;;31.20;13.50;;;;;;;4.30;77.93;99984.49;215271;1289;138266;-89
2023/03/12 17:49:06;;;;;;;33.20;14.20;;;;;;;4.26;77.56;99993.63;214865;1289;139109;-89
2023/03/12 17:54:08;;;;;;;24.00;10.60;;;;;;;4.20;77.98;99989.67;215453;1288;138510;-88
2023/03/12 17:59:09;;;;;;;22.60;9.40;;;;;;;4.17;78.62;99989.40;214881;1290;138599;-88
2023/03/12 18:04:09;;;;;;;22.50;9.10;;;;;;;4.15;78.45;99995.73;215340;1288;138080;-88
2023/03/12 18:09:10;;;;;;;21.90;9.40;;;;;;;4.13;78.29;100001.60;214905;1289;138879;-89
2023/03/12 18:14:10;;;;;;;23.10;9.90;;;;;;;4.10;78.15;100008.02;215304;1288;138695;-88
2023/03/12 18:19:10;;;;;;;20.60;9.10;;;;;;;4.07;78.34;100009.73;214823;1288;139546;-88
2023/03/12 18:24:11;;;;;;;22.00;9.90;;;;;;;4.07;78.46;100000.77;215311;1292;138554;-88
2023/03/12 18:29:11;;;;;;;29.40;12.50;;;;;;;4.06;78.83;99987.74;214971;1288;138971;-88
2023/03/12 18:34:12;;;;;;;26.00;10.40;;;;;;;4.02;78.34;99973.80;215469;1289;138234;-90
2023/03/12 18:39:12;;;;;;;32.20;13.70;;;;;;;4.01;77.75;99960.77;214683;1290;139892;-88
2023/03/12 18:44:13;;;;;;;26.90;11.10;;;;;;;4.00;77.74;99957.30;215161;1289;138462;-89
2023/03/12 18:49:13;;;;;;;28.00;12.50;;;;;;;3.98;78.09;99955.70;214818;1288;138774;-89
2023/03/12 18:54:13;;;;;;;31.40;13.60;;;;;;;3.99;78.02;99947.47;215159;1288;138482;-88
2023/03/12 18:59:15;;;;;;;30.10;13.20;;;;;;;3.99;78.39;99945.38;214889;1289;138933;-89
2023/03/12 19:04:18;;;;;;;27.40;12.20;;;;;;;3.97;77.12;99953.64;215277;1289;97863;-89
2023/03/12 19:09:19;;;;;;;26.70;10.70;;;;;;;3.96;77.48;99947.77;214762;1288;138790;-88
2023/03/12 19:14:19;;;;;;;20.30;9.00;;;;;;;3.94;76.94;99946.33;215263;1291;139304;-88
2023/03/12 19:19:20;;;;;;;18.70;7.50;;;;;;;3.95;76.12;99937.70;214739;1291;138432;-89
2023/03/12 19:24:21;;;;;;;19.00;8.30;;;;;;;3.94;75.65;99925.80;215107;1288;138410;-88
2023/03/12 19:29:21;;;;;;;19.60;7.60;;;;;;;3.95;75.96;99913.83;214855;1291;138608;-89
2023/03/12 19:34:22;;;;;;;17.80;9.30;;;;;;;3.93;75.98;99910.14;215228;1288;97925;-88
2023/03/12 19:39:22;;;;;;;28.20;10.30;;;;;;;3.95;76.41;99907.15;214433;1291;138686;-88
2023/03/12 19:44:24;;;;;;;37.60;19.10;;;;;;;3.96;76.71;99896.29;215066;1288;138702;-88
2023/03/12 19:49:24;;;;;;;26.70;11.30;;;;;;;3.95;76.96;99891.83;214518;1291;139176;-88
2023/03/12 19:54:25;;;;;;;30.50;13.40;;;;;;;3.94;77.42;99887.98;215473;1288;138713;-88
2023/03/12 19:59:25;;;;;;;28.50;12.30;;;;;;;3.95;77.71;99879.91;214615;1289;138579;-87
2023/03/12 20:04:26;;;;;;;31.30;13.70;;;;;;;3.93;78.03;99870.77;215687;1289;97703;-88
2023/03/12 20:09:26;;;;;;;31.30;10.60;;;;;;;3.91;77.70;99877.93;214879;1289;139164;-87
2023/03/12 20:14:27;;;;;;;25.50;10.90;;;;;;;3.90;77.39;99877.36;215235;1289;138553;-87
2023/03/12 20:19:28;;;;;;;25.30;9.90;;;;;;;3.89;76.36;99879.92;214898;1288;138923;-87
2023/03/12 20:24:28;;;;;;;26.20;11.70;;;;;;;3.88;76.63;99889.30;215121;1289;139127;-88
2023/03/12 20:29:29;;;;;;;30.00;11.50;;;;;;;3.87;76.85;99898.75;214567;1289;138744;-88
2023/03/12 20:34:29;;;;;;;22.40;9.40;;;;;;;3.86;77.03;99899.95;215349;1289;99259;-89
2023/03/12 20:39:30;;;;;;;18.50;7.20;;;;;;;3.84;77.19;99902.55;214645;1289;138275;-88
2023/03/12 20:44:31;;;;;;;12.80;5.40;;;;;;;3.80;77.04;99909.36;215278;1289;139269;-87
2023/03/12 20:49:31;;;;;;;13.30;6.10;;;;;;;3.74;78.57;99908.40;214693;1288;138311;-89
2023/03/12 20:54:32;;;;;;;13.20;5.50;;;;;;;3.68;80.15;99904.31;215264;1288;139987;-89
2023/03/12 20:59:36;;;;;;;12.70;5.30;;;;;;;3.61;81.32;99901.41;214542;1289;138854;-87
2023/03/12 21:04:37;;;;;;;13.00;4.50;;;;;;;3.52;82.90;99894.91;215074;1289;97945;-87
2023/03/12 21:09:37;;;;;;;15.70;6.50;;;;;;;3.36;85.74;99883.93;214689;1288;138711;-89
2023/03/12 21:14:38;;;;;;;14.70;5.80;;;;;;;3.20;87.35;99891.17;215169;1293;138919;-87
2023/03/12 21:19:40;;;;;;;14.70;5.30;;;;;;;3.08;88.83;99890.42;214765;1292;139395;-89
2023/03/12 21:24:40;;;;;;;12.90;5.40;;;;;;;2.97;90.03;99881.60;215179;1289;139026;-89
2023/03/12 21:29:41;;;;;;;16.10;6.10;;;;;;;2.89;90.79;99873.17;214818;1288;138826;-89
2023/03/12 21:34:42;;;;;;;14.20;5.40;;;;;;;2.83;91.83;99861.73;215165;1289;97784;-89
2023/03/12 21:39:43;;;;;;;14.80;5.80;;;;;;;2.77;92.55;99856.24;214724;1288;138412;-89
2023/03/12 21:44:43;;;;;;;13.10;6.00;;;;;;;2.69;93.30;99849.10;215307;1289;138325;-88
2023/03/12 21:49:45;;;;;;;14.70;6.40;;;;;;;2.61;93.84;99844.77;214951;1289;139391;-89
2023/03/12 21:54:45;;;;;;;14.60;6.70;;;;;;;2.56;94.84;99850.80;215407;1288;138508;-88
2023/03/12 21:59:46;;;;;;;14.70;6.70;;;;;;;2.46;95.47;99850.48;214871;1289;139021;-90
2023/03/12 22:04:47;;;;;;;16.80;6.90;;;;;;;2.37;96.39;99843.59;215486;1288;97934;-89
2023/03/12 22:09:48;;;;;;;16.30;6.70;;;;;;;2.30;96.77;99833.58;215403;1289;138259;-89
2023/03/12 22:14:48;;;;;;;17.60;7.90;;;;;;;2.27;97.41;99822.08;215935;1291;138375;-89
2023/03/12 22:19:49;;;;;;;19.00;7.70;;;;;;;2.23;98.14;99812.46;215119;1289;138817;-90
2023/03/12 22:24:49;;;;;;;21.20;8.40;;;;;;;2.18;98.72;99809.35;215009;1289;138433;-90
2023/03/12 22:29:51;;;;;;;16.80;7.80;;;;;;;2.14;99.37;99808.11;214533;1289;138495;-89
2023/03/12 22:34:53;;;;;;;16.60;7.60;;;;;;;2.12;99.72;99792.91;215112;1288;98033;-88
2023/03/12 22:39:57;;;;;;;16.80;7.30;;;;;;;2.06;99.96;99787.84;214574;1289;138814;-89
2023/03/12 22:44:58;;;;;;;18.40;6.50;;;;;;;2.02;100.00;99787.39;214906;1289;138909;-90
2023/03/12 22:49:59;;;;;;;13.10;6.50;;;;;;;1.99;100.00;99773.48;214263;1288;138537;-89
2023/03/12 22:55:00;;;;;;;19.90;6.50;;;;;;;1.97;100.00;99761.73;214984;1289;138699;-88
2023/03/12 23:00:01;;;;;;;12.50;6.60;;;;;;;1.97;100.00;99761.85;214421;1288;139368;-85
2023/03/12 23:05:03;;;;;;;16.80;6.90;;;;;;;1.95;100.00;99755.20;215090;1289;97529;-88